createdAt,value
2018-04-19T00:00:36.167Z,11.30
2018-04-19T00:03:04.230Z,11.40
2018-04-19T00:05:32.773Z,11.53
2018-04-19T00:08:00.838Z,10.50
2018-04-19T00:10:28.902Z,11.20
2018-04-19T00:12:57.593Z,10.43
2018-04-19T00:15:25.660Z,10.07
2018-04-19T00:17:53.727Z,10.70
2018-04-19T00:20:22.737Z,10.00
2018-04-19T00:22:51.566Z,10.07
2018-04-19T00:25:19.681Z,9.97
2018-04-19T00:27:47.841Z,9.23
2018-04-19T00:30:15.903Z,9.90
2018-04-19T00:32:43.973Z,9.93
2018-04-19T00:35:12.364Z,10.27
2018-04-19T00:37:40.437Z,10.80
2018-04-19T00:40:08.507Z,11.40
2018-04-19T00:42:36.897Z,12.20
2018-04-19T00:45:04.973Z,12.20
2018-04-19T00:47:33.033Z,12.90
2018-04-19T00:50:01.465Z,11.67
2018-04-19T00:52:41.185Z,12.03
2018-04-19T00:55:10.465Z,11.80
2018-04-19T00:57:38.521Z,11.90
2018-04-19T01:00:07.075Z,12.13
2018-04-19T01:02:35.597Z,12.10
2018-04-19T01:05:03.664Z,11.40
2018-04-19T01:07:31.733Z,10.73
2018-04-19T01:10:00.419Z,11.40
2018-04-19T01:12:28.473Z,10.93
2018-04-19T01:14:56.554Z,9.97
2018-04-19T01:17:24.985Z,10.40
2018-04-19T01:19:53.061Z,11.20
2018-04-19T01:22:21.117Z,11.77
2018-04-19T01:24:50.407Z,11.00
2018-04-19T01:27:19.249Z,11.50
2018-04-19T01:29:47.315Z,11.20
2018-04-19T01:32:15.831Z,11.60
2018-04-19T01:34:43.929Z,11.07
2018-04-19T01:37:12.756Z,10.80
2018-04-19T01:39:40.956Z,11.20
2018-04-19T01:42:09.061Z,11.37
2018-04-19T01:44:37.893Z,10.70
2018-04-19T01:47:06.404Z,11.50
2018-04-19T01:49:34.511Z,10.67
2018-04-19T01:52:03.348Z,10.83
2018-04-19T01:54:31.840Z,10.87
2018-04-19T01:56:59.920Z,11.07
2018-04-19T01:59:27.972Z,11.27
2018-04-19T02:01:56.635Z,11.50
2018-04-19T02:04:24.698Z,11.50
2018-04-19T02:06:52.761Z,11.30
2018-04-19T02:09:21.208Z,11.70
2018-04-19T02:11:49.283Z,12.60
2018-04-19T02:14:17.340Z,12.53
2018-04-19T02:16:45.550Z,11.77
2018-04-19T02:19:13.665Z,11.93
2018-04-19T02:21:41.689Z,10.37
2018-04-19T02:24:10.270Z,10.67
2018-04-19T02:26:39.098Z,10.80
2018-04-19T02:29:07.158Z,10.97
2018-04-19T02:31:35.733Z,11.10
2018-04-19T02:34:03.804Z,11.50
2018-04-19T02:36:31.878Z,11.70
2018-04-19T02:39:00.518Z,11.90
2018-04-19T02:41:28.577Z,11.03
2018-04-19T02:43:56.649Z,11.57
2018-04-19T02:46:25.045Z,11.13
2018-04-19T02:48:53.112Z,10.80
2018-04-19T02:51:21.175Z,10.90
2018-04-19T02:53:49.565Z,11.33
2018-04-19T02:56:17.627Z,11.10
2018-04-19T02:58:45.710Z,12.10
2018-04-19T03:01:13.893Z,10.90
2018-04-19T03:03:42.613Z,12.20
2018-04-19T03:06:10.688Z,12.63
2018-04-19T03:08:39.201Z,12.30
2018-04-19T03:11:07.279Z,12.97
2018-04-19T03:13:35.349Z,12.67
2018-04-19T03:16:03.746Z,11.90
2018-04-19T03:18:32.580Z,11.87
2018-04-19T03:21:00.660Z,11.47
2018-04-19T03:23:29.780Z,12.20
2018-04-19T03:25:57.858Z,12.63
2018-04-19T03:28:25.956Z,13.70
2018-04-19T03:30:54.911Z,12.00
2018-04-19T03:33:22.980Z,13.00
2018-04-19T03:35:51.078Z,11.80
2018-04-19T03:38:19.435Z,13.33
2018-04-19T03:40:47.512Z,12.73
2018-04-19T03:43:15.576Z,13.80
2018-04-19T03:45:43.772Z,13.23
2018-04-19T03:48:11.828Z,12.47
2018-04-19T03:50:39.934Z,13.10
2018-04-19T03:53:08.491Z,12.73
2018-04-19T03:55:36.552Z,12.90
2018-04-19T03:58:04.639Z,12.00
2018-04-19T04:00:33.300Z,13.27
2018-04-19T04:03:01.370Z,12.57
2018-04-19T04:05:29.632Z,13.37
2018-04-19T04:07:58.136Z,13.40
2018-04-19T04:10:26.206Z,13.20
2018-04-19T04:12:54.282Z,13.40
2018-04-19T04:15:22.669Z,13.63
2018-04-19T04:18:02.589Z,12.97
2018-04-19T04:20:42.548Z,14.03
2018-04-19T04:23:22.406Z,13.50
2018-04-19T04:25:50.891Z,13.13
2018-04-19T04:28:18.948Z,13.13
2018-04-19T04:30:48.270Z,13.47
2018-04-19T04:33:16.964Z,13.40
2018-04-19T04:35:45.796Z,13.67
2018-04-19T04:38:13.861Z,13.00
2018-04-19T04:40:42.395Z,13.07
2018-04-19T04:43:10.457Z,12.63
2018-04-19T04:45:38.536Z,13.17
2018-04-19T04:48:06.909Z,12.70
2018-04-19T04:50:34.981Z,13.13
2018-04-19T04:53:03.049Z,13.20
2018-04-19T04:55:31.444Z,13.10
2018-04-19T04:58:00.269Z,13.10
2018-04-19T05:00:28.338Z,12.90
2018-04-19T05:02:56.893Z,12.43
2018-04-19T05:05:25.728Z,13.13
2018-04-19T05:07:54.017Z,12.57
2018-04-19T05:10:22.639Z,12.80
2018-04-19T05:12:51.470Z,12.77
2018-04-19T05:15:19.539Z,13.20
2018-04-19T05:17:47.798Z,12.93
2018-04-19T05:20:15.862Z,14.33
2018-04-19T05:22:43.923Z,14.33
2018-04-19T05:25:13.219Z,12.67
2018-04-19T05:27:42.043Z,13.23
2018-04-19T05:30:10.109Z,14.03
2018-04-19T05:32:38.657Z,14.23
2018-04-19T05:35:07.493Z,13.57
2018-04-19T05:37:35.541Z,13.20
2018-04-19T05:40:04.647Z,12.30
2018-04-19T05:42:32.717Z,12.67
2018-04-19T05:45:00.780Z,12.97
2018-04-19T05:47:29.716Z,13.30
2018-04-19T05:49:57.797Z,12.67
2018-04-19T05:52:25.848Z,11.33
2018-04-19T05:54:54.391Z,14.07
2018-04-19T05:57:22.448Z,14.60
2018-04-19T05:59:51.284Z,14.27
2018-04-19T06:02:19.456Z,14.00
2018-04-19T06:04:47.524Z,15.50
2018-04-19T06:07:15.602Z,15.20
2018-04-19T06:09:44.173Z,15.20
2018-04-19T06:12:12.243Z,15.53
2018-04-19T06:14:40.321Z,15.60
2018-04-19T06:17:08.520Z,16.43
2018-04-19T06:19:36.628Z,15.63
2018-04-19T06:22:05.462Z,15.83
2018-04-19T06:24:33.964Z,15.50
2018-04-19T06:27:02.076Z,14.70
2018-04-19T06:29:30.142Z,16.77
2018-04-19T06:31:59.103Z,16.53
2018-04-19T06:34:27.191Z,16.83
2018-04-19T06:36:56.029Z,16.53
2018-04-19T06:39:24.558Z,16.40
2018-04-19T06:41:52.640Z,16.70
2018-04-19T06:44:21.479Z,16.00
2018-04-19T06:46:49.707Z,16.63
2018-04-19T06:49:18.546Z,16.03
2018-04-19T06:51:46.621Z,16.13
2018-04-19T06:54:15.125Z,15.80
2018-04-19T06:56:43.223Z,15.23
2018-04-19T06:59:12.059Z,15.80
2018-04-19T07:01:40.552Z,14.67
2018-04-19T07:04:08.645Z,15.93
2018-04-19T07:06:36.773Z,16.03
2018-04-19T07:09:06.625Z,15.10
2018-04-19T07:11:35.044Z,15.60
2018-04-19T07:14:03.077Z,16.30
2018-04-19T07:16:31.773Z,15.40
2018-04-19T07:19:00.603Z,16.93
2018-04-19T07:21:28.667Z,16.40
2018-04-19T07:23:56.917Z,16.63
2018-04-19T07:26:25.755Z,16.70
2018-04-19T07:28:53.818Z,16.83
2018-04-19T07:31:22.039Z,16.47
2018-04-19T07:33:50.115Z,16.60
2018-04-19T07:36:18.184Z,16.57
2018-04-19T07:38:47.204Z,17.03
2018-04-19T07:41:15.261Z,17.57
2018-04-19T07:43:44.096Z,18.80
2018-04-19T07:46:12.596Z,16.33
2018-04-19T07:48:40.676Z,16.80
2018-04-19T07:51:08.738Z,17.50
2018-04-19T07:53:37.119Z,17.27
2018-04-19T07:56:05.199Z,17.10
2018-04-19T07:58:33.267Z,16.80
2018-04-19T08:01:01.689Z,18.23
2018-04-19T08:03:29.759Z,17.40
2018-04-19T08:05:58.615Z,17.30
2018-04-19T08:08:27.590Z,16.90
2018-04-19T08:10:55.667Z,16.50
2018-04-19T08:13:24.006Z,16.47
2018-04-19T08:15:52.227Z,15.70
2018-04-19T08:18:20.288Z,16.70
2018-04-19T08:20:48.362Z,15.60
2018-04-19T08:23:17.076Z,15.60
2018-04-19T08:25:45.914Z,16.83
2018-04-19T08:28:13.984Z,17.40
2018-04-19T08:30:42.494Z,15.97
2018-04-19T08:33:10.565Z,16.60
2018-04-19T08:35:38.630Z,17.77
2018-04-19T08:38:07.322Z,15.20
2018-04-19T08:40:35.385Z,16.90
2018-04-19T08:43:03.458Z,16.57
2018-04-19T08:45:31.862Z,16.37
2018-04-19T08:48:00.688Z,15.50
2018-04-19T08:50:28.790Z,14.70
2018-04-19T08:52:58.820Z,15.20
2018-04-19T08:55:26.885Z,15.20
2018-04-19T08:57:54.969Z,14.97
2018-04-19T09:00:23.399Z,15.00
2018-04-19T09:02:51.465Z,14.57
2018-04-19T09:05:19.571Z,15.10
2018-04-19T09:07:47.989Z,14.80
2018-04-19T09:10:16.826Z,15.57
2018-04-19T09:12:44.927Z,16.70
2018-04-19T09:15:14.076Z,13.93
2018-04-19T09:17:42.139Z,13.83
2018-04-19T09:20:10.214Z,14.27
2018-04-19T09:22:38.751Z,14.17
2018-04-19T09:25:07.414Z,13.60
2018-04-19T09:27:35.483Z,14.80
2018-04-19T09:30:03.945Z,14.07
2018-04-19T09:32:32.023Z,15.53
2018-04-19T09:35:00.087Z,14.30
2018-04-19T09:37:28.737Z,13.70
2018-04-19T09:39:57.565Z,14.90
2018-04-19T09:42:25.623Z,14.93
2018-04-19T09:44:54.153Z,14.67
2018-04-19T09:47:22.224Z,13.90
2018-04-19T09:49:50.306Z,14.70
2018-04-19T09:52:18.976Z,13.83
2018-04-19T09:54:47.034Z,13.93
2018-04-19T09:57:15.096Z,15.13
2018-04-19T09:59:43.345Z,14.40
2018-04-19T10:02:11.428Z,13.60
2018-04-19T10:04:39.497Z,15.33
2018-04-19T10:07:07.849Z,13.40
2018-04-19T10:09:35.923Z,13.50
2018-04-19T10:12:03.997Z,14.03
2018-04-19T10:14:32.222Z,16.10
2018-04-19T10:17:00.774Z,14.57
2018-04-19T10:19:28.838Z,15.50
2018-04-19T10:21:57.044Z,16.03
2018-04-19T10:24:25.124Z,15.20
2018-04-19T10:26:53.220Z,14.10
2018-04-19T10:29:22.180Z,14.20
2018-04-19T10:31:50.242Z,13.23
2018-04-19T10:34:18.342Z,14.77
2018-04-19T10:36:46.732Z,14.37
2018-04-19T10:39:14.783Z,15.40
2018-04-19T10:41:42.852Z,13.77
2018-04-19T10:44:11.250Z,14.10
2018-04-19T10:46:40.104Z,12.60
2018-04-19T10:49:08.188Z,13.90
2018-04-19T10:51:36.672Z,14.20
2018-04-19T10:54:04.751Z,13.77
2018-04-19T10:56:32.803Z,14.30
2018-04-19T10:59:01.234Z,12.97
2018-04-19T11:01:29.296Z,13.10
2018-04-19T11:03:57.371Z,12.90
2018-04-19T11:06:26.672Z,12.07
2018-04-19T11:08:54.729Z,12.30
2018-04-19T11:11:23.563Z,11.83
2018-04-19T11:13:51.839Z,11.67
2018-04-19T11:16:19.898Z,10.50
2018-04-19T11:18:48.161Z,11.00
2018-04-19T11:21:16.602Z,10.60
2018-04-19T11:23:44.685Z,11.00
2018-04-19T11:26:13.513Z,10.30
2018-04-19T11:28:41.632Z,10.20
2018-04-19T11:31:09.706Z,9.60
2018-04-19T11:33:37.807Z,10.60
2018-04-19T11:36:06.249Z,9.10
2018-04-19T11:38:34.317Z,9.20
2018-04-19T11:41:02.401Z,10.27
2018-04-19T11:43:30.808Z,10.17
2018-04-19T11:45:58.875Z,10.20
2018-04-19T11:48:27.711Z,11.70
2018-04-19T11:50:56.213Z,10.63
2018-04-19T11:53:24.275Z,9.60
2018-04-19T11:55:52.346Z,10.27
2018-04-19T11:58:21.115Z,9.47
2018-04-19T12:00:49.173Z,9.17
2018-04-19T12:03:17.266Z,10.23
2018-04-19T12:05:45.689Z,10.30
2018-04-19T12:08:13.775Z,10.97
2018-04-19T12:10:41.841Z,11.70
2018-04-19T12:13:10.045Z,11.10
2018-04-19T12:15:38.117Z,11.20
2018-04-19T12:18:06.212Z,10.90
2018-04-19T12:20:34.687Z,9.37
2018-04-19T12:23:02.745Z,9.30
2018-04-19T12:25:30.816Z,9.20
2018-04-19T12:27:59.217Z,8.20
2018-04-19T12:30:27.286Z,8.50
2018-04-19T12:32:55.386Z,9.17
2018-04-19T12:35:23.798Z,9.00
2018-04-19T12:37:51.873Z,9.50
2018-04-19T12:40:19.949Z,10.57
2018-04-19T12:42:48.164Z,10.83
2018-04-19T12:45:16.233Z,9.37
2018-04-19T12:47:44.331Z,8.90
2018-04-19T12:50:13.289Z,9.10
2018-04-19T12:52:41.351Z,8.70
2018-04-19T12:55:09.431Z,9.33
2018-04-19T12:57:37.673Z,8.83
2018-04-19T13:00:05.741Z,8.37
2018-04-19T13:02:33.817Z,8.77
2018-04-19T13:05:02.180Z,9.77
2018-04-19T13:07:30.269Z,8.97
2018-04-19T13:09:58.341Z,8.53
2018-04-19T13:12:26.760Z,7.70
2018-04-19T13:14:55.634Z,8.60
2018-04-19T13:17:23.722Z,8.30
2018-04-19T13:19:52.092Z,8.13
2018-04-19T13:22:20.346Z,8.40
2018-04-19T13:24:48.437Z,9.40
2018-04-19T13:27:17.127Z,8.20
2018-04-19T13:29:45.191Z,7.23
2018-04-19T13:32:13.265Z,5.33
2018-04-19T13:34:41.370Z,5.37
2018-04-19T13:37:10.199Z,5.40
2018-04-19T13:39:38.271Z,4.30
2018-04-19T13:42:06.881Z,4.80
2018-04-19T13:44:34.951Z,4.50
2018-04-19T13:47:03.021Z,4.00
2018-04-19T13:49:31.615Z,4.33
2018-04-19T13:51:59.677Z,4.13
2018-04-19T13:54:27.758Z,4.10
2018-04-19T13:56:56.009Z,3.30
2018-04-19T13:59:24.097Z,3.80
2018-04-19T14:01:52.223Z,3.50
2018-04-19T14:04:21.257Z,3.20
2018-04-19T14:06:49.350Z,3.07
2018-04-19T14:09:17.408Z,3.07
2018-04-19T14:11:45.640Z,3.33
2018-04-19T14:14:14.646Z,3.40
2018-04-19T14:16:42.731Z,2.93
2018-04-19T14:19:11.257Z,2.93
2018-04-19T14:21:39.342Z,2.50
2018-04-19T14:24:07.625Z,3.07
2018-04-19T14:26:35.815Z,3.20
2018-04-19T14:29:03.941Z,2.83
2018-04-19T14:31:31.989Z,2.70
2018-04-19T14:34:00.190Z,3.13
2018-04-19T14:36:28.283Z,2.60
2018-04-19T14:38:56.349Z,3.13
2018-04-19T14:41:24.793Z,3.40
2018-04-19T14:43:52.875Z,2.70
2018-04-19T14:46:20.933Z,2.90
2018-04-19T14:48:49.645Z,3.77
2018-04-19T14:51:18.485Z,2.80
2018-04-19T14:53:46.592Z,2.33
2018-04-19T14:56:14.817Z,2.40
2018-04-19T14:58:42.877Z,2.90
2018-04-19T15:01:10.949Z,2.80
2018-04-19T15:03:39.895Z,2.57
2018-04-19T15:06:07.959Z,2.80
2018-04-19T15:08:36.030Z,2.30
2018-04-19T15:11:04.278Z,2.93
2018-04-19T15:13:32.370Z,2.33
2018-04-19T15:16:00.432Z,2.87
2018-04-19T15:18:29.859Z,3.00
2018-04-19T15:20:59.088Z,2.70
2018-04-19T15:23:28.903Z,2.63
2018-04-19T15:25:57.735Z,2.77
2018-04-19T15:28:25.814Z,2.80
2018-04-19T15:30:53.868Z,2.80
2018-04-19T15:33:22.296Z,2.90
2018-04-19T15:35:51.142Z,2.60
2018-04-19T15:38:20.196Z,3.00
2018-04-19T15:40:48.257Z,3.60
2018-04-19T15:43:17.100Z,3.87
2018-04-19T15:45:45.696Z,3.77
2018-04-19T15:48:13.775Z,4.07
2018-04-19T15:50:41.839Z,3.70
2018-04-19T15:53:10.287Z,3.70
2018-04-19T15:55:38.360Z,4.30
2018-04-19T15:58:06.440Z,4.40
2018-04-19T16:00:34.670Z,4.10
2018-04-19T16:03:02.781Z,4.57
2018-04-19T16:05:31.628Z,4.47
2018-04-19T16:08:00.199Z,4.43
2018-04-19T16:10:29.037Z,5.83
2018-04-19T16:12:57.112Z,5.17
2018-04-19T16:15:25.595Z,10.50
2018-04-19T16:17:53.701Z,8.53
2018-04-19T16:20:21.778Z,5.10
2018-04-19T16:22:49.962Z,4.07
2018-04-19T16:25:18.028Z,4.60
2018-04-19T16:27:46.320Z,3.80
2018-04-19T16:30:15.694Z,5.03
2018-04-19T16:32:43.766Z,4.53
2018-04-19T16:35:11.818Z,4.40
2018-04-19T16:37:40.076Z,3.80
2018-04-19T16:40:08.152Z,4.10
2018-04-19T16:42:36.230Z,4.70
2018-04-19T16:45:04.500Z,4.57
2018-04-19T16:47:32.592Z,5.03
2018-04-19T16:50:00.624Z,4.03
2018-04-19T16:52:29.258Z,3.93
2018-04-19T16:54:57.326Z,4.47
2018-04-19T16:57:25.390Z,3.70
2018-04-19T16:59:54.098Z,4.33
2018-04-19T17:02:22.179Z,3.77
2018-04-19T17:04:51.017Z,4.13
2018-04-19T17:07:19.525Z,4.10
2018-04-19T17:09:47.600Z,3.47
2018-04-19T17:12:15.680Z,3.90
2018-04-19T17:14:44.262Z,3.53
2018-04-19T17:17:12.206Z,3.10
2018-04-19T17:19:40.262Z,2.80
2018-04-19T17:22:08.892Z,2.87
2018-04-19T17:24:36.966Z,2.97
2018-04-19T17:27:05.046Z,2.90
2018-04-19T17:29:33.370Z,2.80
2018-04-19T17:32:01.432Z,2.40
2018-04-19T17:34:29.502Z,2.70
2018-04-19T17:36:57.698Z,2.30
2018-04-19T17:39:25.797Z,2.60
2018-04-19T17:41:55.247Z,2.67
2018-04-19T17:44:23.665Z,3.37
2018-04-19T17:46:51.732Z,2.90
2018-04-19T17:49:19.791Z,2.70
2018-04-19T17:51:48.389Z,2.93
2018-04-19T17:54:16.449Z,2.50
2018-04-19T17:56:44.506Z,3.03
2018-04-19T17:59:12.958Z,2.67
2018-04-19T18:01:41.004Z,2.77
2018-04-19T18:04:09.840Z,2.97
2018-04-19T18:06:38.377Z,2.83
2018-04-19T18:09:07.642Z,4.30
2018-04-19T18:11:35.706Z,4.30
2018-04-19T18:14:03.773Z,3.57
2018-04-19T18:16:32.159Z,3.60
2018-04-19T18:19:00.264Z,4.37
2018-04-19T18:21:29.089Z,4.70
2018-04-19T18:23:57.598Z,3.97
2018-04-19T18:26:25.752Z,3.93
2018-04-19T18:28:53.806Z,4.23
2018-04-19T18:31:22.609Z,4.70
2018-04-19T18:33:50.696Z,5.10
2018-04-19T18:36:19.517Z,4.27
2018-04-19T18:38:48.869Z,3.73
2018-04-19T18:41:16.945Z,3.63
2018-04-19T18:43:45.002Z,4.10
2018-04-19T18:46:13.310Z,3.70
2018-04-19T18:48:41.408Z,3.83
2018-04-19T18:51:09.450Z,3.97
2018-04-19T18:53:37.829Z,3.93
2018-04-19T18:56:05.903Z,4.43
2018-04-19T18:58:33.961Z,4.77
2018-04-19T19:01:02.146Z,4.10
2018-04-19T19:03:30.219Z,5.07
2018-04-19T19:05:58.277Z,4.90
2018-04-19T19:08:26.603Z,5.50
2018-04-19T19:10:54.674Z,4.80
2018-04-19T19:13:23.501Z,5.30
2018-04-19T19:16:09.369Z,5.33
2018-04-19T19:18:49.114Z,5.40
2018-04-19T19:21:17.661Z,5.07
2018-04-19T19:23:45.729Z,5.23
2018-04-19T19:26:13.785Z,5.10
2018-04-19T19:28:42.257Z,4.60
2018-04-19T19:31:11.027Z,5.60
2018-04-19T19:33:39.588Z,5.53
2018-04-19T19:36:08.865Z,5.00
2018-04-19T19:38:37.703Z,4.97
2018-04-19T19:41:05.760Z,5.00
2018-04-19T19:43:34.318Z,4.70
2018-04-19T19:46:03.142Z,4.90
2018-04-19T19:48:31.203Z,5.20
2018-04-19T19:50:59.583Z,5.20
2018-04-19T19:53:27.643Z,5.20
2018-04-19T19:55:55.692Z,5.30
2018-04-19T19:58:23.956Z,4.60
2018-04-19T20:00:52.799Z,5.10
2018-04-19T20:03:20.850Z,4.90
2018-04-19T20:05:49.112Z,5.30
2018-04-19T20:08:17.929Z,5.20
2018-04-19T20:10:45.984Z,4.90
2018-04-19T20:13:14.209Z,5.40
2018-04-19T20:15:42.271Z,5.60
2018-04-19T20:18:10.332Z,5.77
2018-04-19T20:20:38.552Z,5.60
2018-04-19T20:23:06.611Z,5.30
2018-04-19T20:25:34.664Z,5.60
2018-04-19T20:28:02.948Z,5.70
2018-04-19T20:30:31.016Z,5.73
2018-04-19T20:32:59.077Z,5.40
2018-04-19T20:35:27.821Z,4.70
2018-04-19T20:37:56.626Z,5.50
2018-04-19T20:40:24.687Z,5.67
2018-04-19T20:42:53.210Z,5.73
2018-04-19T20:45:21.275Z,6.57
2018-04-19T20:47:49.330Z,5.67
2018-04-19T20:50:17.728Z,6.43
2018-04-19T20:52:45.789Z,6.20
2018-04-19T20:55:13.845Z,6.40
2018-04-19T20:57:42.240Z,6.37
2018-04-19T21:00:10.343Z,5.90
2018-04-19T21:02:38.388Z,6.00
2018-04-19T21:05:06.581Z,6.83
2018-04-19T21:07:34.721Z,5.70
2018-04-19T21:10:02.747Z,6.00
2018-04-19T21:12:31.913Z,6.27
2018-04-19T21:14:59.979Z,6.17
2018-04-19T21:17:28.048Z,6.23
2018-04-19T21:19:56.457Z,6.67
2018-04-19T21:22:25.288Z,7.80
2018-04-19T21:24:53.391Z,6.90
2018-04-19T21:27:21.856Z,7.60
2018-04-19T21:29:49.917Z,7.57
2018-04-19T21:32:18.005Z,6.97
2018-04-19T21:34:46.383Z,7.37
2018-04-19T21:37:14.942Z,7.20
2018-04-19T21:39:42.999Z,7.20
2018-04-19T21:42:11.533Z,6.20
2018-04-19T21:44:39.594Z,5.70
2018-04-19T21:47:07.659Z,6.60
2018-04-19T21:49:36.052Z,7.10
2018-04-19T21:52:04.105Z,7.50
2018-04-19T21:54:32.165Z,6.97
2018-04-19T21:57:00.597Z,6.50
2018-04-19T21:59:29.416Z,6.53
2018-04-19T22:01:57.484Z,7.27
2018-04-19T22:04:26.012Z,7.40
2018-04-19T22:06:54.078Z,7.37
2018-04-19T22:09:22.137Z,7.10
2018-04-19T22:11:50.539Z,7.43
2018-04-19T22:14:18.630Z,7.40
2018-04-19T22:16:47.466Z,7.67
2018-04-19T22:19:15.677Z,7.20
2018-04-19T22:21:43.763Z,7.00
2018-04-19T22:24:11.821Z,7.00
2018-04-19T22:26:40.192Z,6.90
2018-04-19T22:29:08.251Z,6.83
2018-04-19T22:31:36.312Z,7.73
2018-04-19T22:34:05.017Z,6.90
2018-04-19T22:36:33.074Z,6.77
2018-04-19T22:39:01.513Z,6.33
2018-04-19T22:41:29.855Z,6.73
2018-04-19T22:43:57.916Z,7.03
2018-04-19T22:46:25.985Z,6.57
2018-04-19T22:48:54.386Z,6.00
2018-04-19T22:51:23.212Z,7.07
2018-04-19T22:53:51.278Z,6.60
2018-04-19T22:56:19.799Z,6.57
2018-04-19T22:58:47.867Z,6.17
2018-04-19T23:01:15.941Z,6.30
2018-04-19T23:03:44.350Z,6.50
2018-04-19T23:06:13.180Z,6.77
2018-04-19T23:08:41.244Z,5.87
2018-04-19T23:11:09.790Z,5.90
2018-04-19T23:13:38.618Z,6.50
2018-04-19T23:16:06.677Z,6.80
2018-04-19T23:18:35.220Z,7.00
2018-04-19T23:21:03.279Z,6.90
2018-04-19T23:23:31.340Z,6.97
2018-04-19T23:25:59.737Z,6.33
2018-04-19T23:28:27.802Z,6.70
2018-04-19T23:30:55.876Z,6.87
2018-04-19T23:33:24.248Z,7.03
2018-04-19T23:35:52.320Z,6.37
2018-04-19T23:38:20.381Z,7.00
2018-04-19T23:40:49.553Z,6.83
2018-04-19T23:43:17.617Z,6.10
2018-04-19T23:45:45.672Z,7.23
2018-04-19T23:48:14.224Z,7.03
2018-04-19T23:50:42.277Z,8.27
2018-04-19T23:53:10.395Z,9.10
2018-04-19T23:55:39.652Z,8.17
2018-04-19T23:58:07.702Z,8.10
